createdAt,value
2023-10-04T00:00:07.423Z,66.22
2023-10-04T00:00:19.437Z,71.03
2023-10-04T00:00:30.882Z,73.28
2023-10-04T00:00:42.539Z,68.93
2023-10-04T00:00:53.972Z,67.55
2023-10-04T00:01:05.511Z,66.40
2023-10-04T00:01:17.351Z,66.70
2023-10-04T00:01:28.986Z,65.13
2023-10-04T00:01:40.703Z,66.20
2023-10-04T00:01:52.173Z,68.72
2023-10-04T00:02:03.716Z,69.40
2023-10-04T00:02:15.347Z,68.22
2023-10-04T00:02:27.078Z,65.30
2023-10-04T00:02:38.807Z,66.82
2023-10-04T00:02:54.057Z,68.85
2023-10-04T00:03:05.892Z,68.50
2023-10-04T00:03:17.523Z,68.47
2023-10-04T00:03:29.267Z,69.78
2023-10-04T00:03:41.192Z,67.72
2023-10-04T00:03:52.940Z,69.68
2023-10-04T00:04:04.968Z,69.30
2023-10-04T00:04:17.022Z,68.55
2023-10-04T00:04:28.657Z,65.93
2023-10-04T00:04:40.420Z,66.00
2023-10-04T00:04:52.039Z,66.40
2023-10-04T00:05:03.704Z,67.30
2023-10-04T00:05:15.547Z,66.47
2023-10-04T00:05:27.532Z,67.25
2023-10-04T00:05:38.989Z,67.47
2023-10-04T00:05:59.052Z,66.63
2023-10-04T00:06:10.640Z,67.78
2023-10-04T00:06:22.271Z,66.90
2023-10-04T00:06:33.897Z,65.25
2023-10-04T00:06:45.368Z,66.13
2023-10-04T00:06:57.010Z,66.70
2023-10-04T00:07:08.519Z,66.43
2023-10-04T00:07:20.109Z,62.50
2023-10-04T00:07:31.631Z,63.97
2023-10-04T00:07:48.290Z,65.22
2023-10-04T00:07:59.771Z,65.80
2023-10-04T00:08:11.255Z,64.22
2023-10-04T00:08:22.759Z,65.22
2023-10-04T00:08:34.277Z,68.43
2023-10-04T00:08:45.790Z,68.88
2023-10-04T00:08:57.235Z,68.55
2023-10-04T00:09:09.578Z,68.75
2023-10-04T00:09:21.123Z,69.03
2023-10-04T00:09:32.653Z,69.25
2023-10-04T00:09:44.223Z,67.45
2023-10-04T00:09:55.688Z,68.55
2023-10-04T00:10:07.759Z,66.80
2023-10-04T00:10:20.909Z,66.22
2023-10-04T00:10:35.418Z,65.85
2023-10-04T00:10:47.219Z,67.72
2023-10-04T00:10:58.633Z,66.60
2023-10-04T00:11:14.882Z,64.43
2023-10-04T00:11:26.914Z,64.35
2023-10-04T00:11:38.901Z,63.42
2023-10-04T00:11:50.346Z,68.93
2023-10-04T00:12:01.944Z,68.57
2023-10-04T00:12:13.389Z,66.70
2023-10-04T00:12:25.080Z,67.22
2023-10-04T00:12:37.991Z,68.20
2023-10-04T00:12:49.440Z,68.43
2023-10-04T00:13:01.033Z,66.28
2023-10-04T00:13:15.268Z,66.30
2023-10-04T00:13:26.946Z,66.40
2023-10-04T00:13:38.403Z,63.92
2023-10-04T00:13:49.886Z,66.32
2023-10-04T00:14:01.335Z,66.78
2023-10-04T00:14:13.150Z,66.78
2023-10-04T00:14:24.608Z,65.57
2023-10-04T00:14:36.116Z,63.20
2023-10-04T00:14:47.601Z,64.75
2023-10-04T00:14:59.082Z,68.45
2023-10-04T00:15:11.333Z,72.65
2023-10-04T00:15:23.206Z,70.45
2023-10-04T00:15:34.738Z,67.25
2023-10-04T00:15:46.289Z,67.68
2023-10-04T00:15:57.805Z,65.95
2023-10-04T00:16:09.294Z,65.47
2023-10-04T00:16:20.865Z,67.90
2023-10-04T00:16:32.491Z,65.55
2023-10-04T00:16:44.132Z,65.50
2023-10-04T00:16:55.590Z,66.13
2023-10-04T00:17:06.999Z,66.68
2023-10-04T00:17:18.434Z,63.42
2023-10-04T00:17:29.993Z,63.88
2023-10-04T00:17:45.414Z,64.18
2023-10-04T00:17:57.056Z,62.90
2023-10-04T00:18:08.818Z,65.28
2023-10-04T00:18:20.413Z,65.72
2023-10-04T00:18:31.962Z,63.75
2023-10-04T00:18:43.544Z,62.40
2023-10-04T00:19:00.960Z,62.80
2023-10-04T00:19:12.410Z,63.53
2023-10-04T00:19:23.890Z,66.93
2023-10-04T00:19:35.293Z,66.38
2023-10-04T00:19:46.669Z,66.05
2023-10-04T00:19:58.354Z,65.82
2023-10-04T00:20:11.572Z,65.13
2023-10-04T00:20:23.843Z,61.83
2023-10-04T00:20:35.375Z,60.72
2023-10-04T00:20:46.960Z,60.30
2023-10-04T00:20:58.422Z,61.85
2023-10-04T00:21:10.006Z,60.83
2023-10-04T00:21:21.500Z,58.92
2023-10-04T00:21:32.960Z,59.40
2023-10-04T00:21:44.433Z,60.20
2023-10-04T00:21:56.036Z,61.40
2023-10-04T00:22:07.665Z,61.95
2023-10-04T00:22:19.130Z,64.20
2023-10-04T00:22:30.974Z,63.70
2023-10-04T00:22:42.453Z,60.78
2023-10-04T00:22:53.936Z,62.75
2023-10-04T00:23:05.315Z,64.30
2023-10-04T00:23:16.997Z,64.90
2023-10-04T00:23:28.398Z,60.78
2023-10-04T00:23:40.394Z,61.17
2023-10-04T00:23:51.928Z,59.35
2023-10-04T00:24:03.546Z,62.20
2023-10-04T00:24:15.007Z,63.67
2023-10-04T00:24:26.574Z,63.53
2023-10-04T00:24:38.148Z,62.80
2023-10-04T00:24:50.098Z,65.47
2023-10-04T00:25:01.547Z,66.63
2023-10-04T00:25:14.653Z,64.78
2023-10-04T00:25:26.409Z,63.03
2023-10-04T00:25:38.178Z,64.32
2023-10-04T00:25:49.564Z,65.43
2023-10-04T00:26:00.966Z,63.95
2023-10-04T00:26:12.388Z,62.30
2023-10-04T00:26:23.769Z,60.47
2023-10-04T00:26:35.138Z,59.53
2023-10-04T00:26:46.558Z,59.90
2023-10-04T00:26:57.959Z,61.97
2023-10-04T00:27:09.481Z,61.45
2023-10-04T00:27:20.908Z,60.30
2023-10-04T00:27:32.441Z,61.80
2023-10-04T00:27:44.344Z,62.75
2023-10-04T00:27:56.230Z,63.22
2023-10-04T00:28:07.810Z,65.13
2023-10-04T00:28:19.238Z,69.45
2023-10-04T00:28:30.694Z,69.80
2023-10-04T00:28:42.388Z,66.22
2023-10-04T00:28:53.989Z,63.80
2023-10-04T00:29:05.715Z,66.35
2023-10-04T00:29:17.332Z,66.15
2023-10-04T00:29:28.694Z,66.15
2023-10-04T00:29:40.207Z,63.30
2023-10-04T00:29:51.616Z,63.80
2023-10-04T00:30:03.268Z,63.35
2023-10-04T00:30:15.611Z,63.80
2023-10-04T00:30:28.902Z,61.65
2023-10-04T00:30:40.468Z,61.55
2023-10-04T00:30:52.279Z,65.93
2023-10-04T00:31:03.766Z,67.72
2023-10-04T00:31:15.303Z,66.45
2023-10-04T00:31:26.789Z,66.93
2023-10-04T00:31:38.231Z,67.25
2023-10-04T00:31:49.746Z,66.65
2023-10-04T00:32:01.224Z,64.35
2023-10-04T00:32:12.611Z,66.85
2023-10-04T00:32:24.219Z,66.47
2023-10-04T00:32:35.781Z,65.90
2023-10-04T00:32:47.593Z,65.40
2023-10-04T00:33:00.544Z,67.05
2023-10-04T00:33:12.379Z,65.30
2023-10-04T00:33:24.101Z,67.15
2023-10-04T00:33:35.663Z,72.60
2023-10-04T00:33:47.179Z,74.43
2023-10-04T00:33:58.712Z,73.20
2023-10-04T00:34:10.240Z,67.18
2023-10-04T00:34:21.645Z,66.80
2023-10-04T00:34:33.115Z,63.55
2023-10-04T00:34:44.566Z,63.35
2023-10-04T00:34:56.106Z,68.63
2023-10-04T00:35:07.912Z,68.65
2023-10-04T00:35:19.816Z,66.68
2023-10-04T00:35:31.306Z,67.13
2023-10-04T00:35:42.734Z,66.93
2023-10-04T00:35:54.180Z,64.00
2023-10-04T00:36:05.907Z,64.22
2023-10-04T00:36:17.597Z,65.57
2023-10-04T00:36:29.291Z,65.72
2023-10-04T00:36:40.979Z,64.55
2023-10-04T00:36:52.414Z,64.47
2023-10-04T00:37:03.816Z,65.78
2023-10-04T00:37:15.746Z,65.18
2023-10-04T00:37:27.471Z,65.53
2023-10-04T00:37:42.821Z,68.55
2023-10-04T00:37:55.228Z,68.75
2023-10-04T00:38:06.727Z,64.32
2023-10-04T00:38:18.156Z,62.85
2023-10-04T00:38:29.814Z,64.07
2023-10-04T00:38:41.300Z,66.82
2023-10-04T00:38:52.845Z,67.45
2023-10-04T00:39:04.614Z,64.03
2023-10-04T00:39:16.169Z,61.45
2023-10-04T00:39:27.749Z,65.78
2023-10-04T00:39:39.632Z,67.38
2023-10-04T00:39:51.104Z,68.20
2023-10-04T00:40:03.202Z,66.70
2023-10-04T00:40:22.017Z,67.53
2023-10-04T00:40:34.224Z,64.40
2023-10-04T00:40:45.720Z,63.93
2023-10-04T00:40:57.295Z,63.97
2023-10-04T00:41:09.635Z,64.28
2023-10-04T00:41:21.117Z,68.00
2023-10-04T00:41:33.451Z,70.28
2023-10-04T00:41:45.154Z,65.47
2023-10-04T00:41:56.615Z,64.13
2023-10-04T00:42:08.134Z,62.33
2023-10-04T00:42:19.775Z,60.90
2023-10-04T00:42:31.522Z,60.38
2023-10-04T00:42:43.282Z,61.15
2023-10-04T00:42:59.409Z,64.07
2023-10-04T00:43:10.809Z,67.65
2023-10-04T00:43:22.268Z,65.05
2023-10-04T00:43:33.672Z,63.63
2023-10-04T00:43:49.494Z,64.75
2023-10-04T00:44:01.027Z,63.53
2023-10-04T00:44:12.436Z,65.40
2023-10-04T00:44:23.905Z,65.55
2023-10-04T00:44:35.361Z,65.55
2023-10-04T00:44:46.755Z,65.18
2023-10-04T00:45:00.689Z,65.55
2023-10-04T00:45:12.335Z,67.65
2023-10-04T00:45:24.615Z,68.55
2023-10-04T00:45:36.239Z,67.38
2023-10-04T00:45:48.027Z,66.93
2023-10-04T00:45:59.560Z,69.05
2023-10-04T00:46:11.453Z,69.55
2023-10-04T00:46:23.275Z,71.80
2023-10-04T00:46:35.292Z,69.95
2023-10-04T00:46:47.236Z,66.90
2023-10-04T00:46:59.521Z,62.30
2023-10-04T00:47:11.362Z,62.97
2023-10-04T00:47:22.900Z,60.17
2023-10-04T00:47:34.658Z,63.80
2023-10-04T00:47:48.012Z,67.03
2023-10-04T00:48:01.782Z,66.25
2023-10-04T00:48:13.765Z,63.55
2023-10-04T00:48:25.644Z,63.08
2023-10-04T00:48:37.452Z,63.22
2023-10-04T00:48:50.683Z,63.92
2023-10-04T00:49:03.565Z,62.22
2023-10-04T00:49:15.217Z,63.55
2023-10-04T00:49:27.930Z,64.85
2023-10-04T00:49:39.399Z,66.80
2023-10-04T00:49:50.843Z,67.75
2023-10-04T00:50:02.961Z,69.15
2023-10-04T00:50:25.673Z,67.93
2023-10-04T00:50:37.141Z,65.32
2023-10-04T00:50:48.674Z,64.05
2023-10-04T00:51:00.204Z,61.88
2023-10-04T00:51:12.334Z,61.92
2023-10-04T00:51:24.165Z,63.22
2023-10-04T00:51:36.305Z,63.25
2023-10-04T00:51:47.847Z,61.83
2023-10-04T00:52:01.158Z,61.20
2023-10-04T00:52:14.610Z,66.30
2023-10-04T00:52:26.056Z,73.28
2023-10-04T00:52:38.056Z,73.03
2023-10-04T00:53:00.224Z,63.30
2023-10-04T00:53:22.371Z,60.75
2023-10-04T00:53:33.860Z,61.47
2023-10-04T00:53:45.556Z,62.88
2023-10-04T00:53:57.280Z,65.00
2023-10-04T00:54:09.258Z,67.18
2023-10-04T00:54:20.875Z,66.38
2023-10-04T00:54:32.457Z,61.13
2023-10-04T00:54:44.200Z,58.08
2023-10-04T00:54:56.141Z,60.60
2023-10-04T00:55:08.056Z,63.67
2023-10-04T00:55:20.173Z,67.63
2023-10-04T00:55:33.860Z,67.82
2023-10-04T00:55:45.376Z,67.43
2023-10-04T00:55:56.928Z,64.93
2023-10-04T00:56:12.335Z,64.72
2023-10-04T00:56:25.582Z,66.43
2023-10-04T00:56:37.553Z,66.07
2023-10-04T00:56:49.079Z,65.30
2023-10-04T00:57:00.651Z,63.97
2023-10-04T00:57:12.387Z,63.00
2023-10-04T00:57:24.490Z,61.30
2023-10-04T00:57:36.033Z,62.75
2023-10-04T00:57:50.787Z,62.67
2023-10-04T00:58:04.111Z,64.32
2023-10-04T00:58:17.748Z,64.03
2023-10-04T00:58:29.595Z,62.20
2023-10-04T00:58:41.095Z,62.35
2023-10-04T00:58:56.115Z,61.78
2023-10-04T00:59:08.015Z,62.08
2023-10-04T00:59:19.442Z,61.95
2023-10-04T00:59:31.295Z,66.15
2023-10-04T00:59:43.383Z,66.75
2023-10-04T00:59:54.848Z,65.43
2023-10-04T01:00:07.025Z,63.30
2023-10-04T01:00:18.753Z,62.50
2023-10-04T01:00:30.418Z,61.97
2023-10-04T01:00:42.342Z,62.40
2023-10-04T01:00:53.833Z,61.72
2023-10-04T01:01:05.260Z,63.70
2023-10-04T01:01:16.770Z,63.78
2023-10-04T01:01:28.802Z,67.32
2023-10-04T01:01:40.339Z,69.70
2023-10-04T01:01:51.913Z,66.68
2023-10-04T01:02:03.375Z,60.90
2023-10-04T01:02:14.917Z,63.83
2023-10-04T01:02:26.592Z,67.10
2023-10-04T01:02:38.201Z,66.78
2023-10-04T01:02:49.924Z,64.35
2023-10-04T01:03:01.604Z,62.97
2023-10-04T01:03:13.381Z,57.90
2023-10-04T01:03:25.179Z,57.38
2023-10-04T01:03:37.250Z,57.92
2023-10-04T01:03:48.839Z,59.03
2023-10-04T01:04:01.018Z,61.70
2023-10-04T01:04:12.910Z,61.75
2023-10-04T01:04:24.428Z,63.22
2023-10-04T01:04:36.090Z,62.05
2023-10-04T01:04:47.631Z,60.97
2023-10-04T01:04:59.148Z,62.90
2023-10-04T01:05:11.269Z,65.05
2023-10-04T01:05:22.900Z,70.28
2023-10-04T01:05:35.607Z,68.40
2023-10-04T01:05:47.584Z,64.90
2023-10-04T01:06:01.148Z,62.13
2023-10-04T01:06:12.857Z,61.58
2023-10-04T01:06:24.406Z,60.90
2023-10-04T01:06:35.919Z,60.15
2023-10-04T01:06:47.468Z,61.80
2023-10-04T01:06:58.946Z,62.05
2023-10-04T01:07:10.423Z,62.20
2023-10-04T01:07:21.917Z,61.20
2023-10-04T01:07:33.361Z,62.08
2023-10-04T01:07:46.785Z,61.55
2023-10-04T01:08:00.575Z,59.95
2023-10-04T01:08:16.923Z,62.00
2023-10-04T01:08:28.520Z,64.23
2023-10-04T01:08:40.202Z,60.72
2023-10-04T01:08:51.984Z,59.10
2023-10-04T01:09:03.716Z,57.70
2023-10-04T01:09:15.513Z,58.95
2023-10-04T01:09:28.128Z,60.15
2023-10-04T01:09:39.703Z,59.10
2023-10-04T01:09:51.199Z,59.28
2023-10-04T01:10:09.911Z,61.47
2023-10-04T01:10:21.357Z,63.50
2023-10-04T01:10:33.287Z,61.83
2023-10-04T01:10:44.811Z,60.08
2023-10-04T01:10:56.293Z,63.40
2023-10-04T01:11:07.879Z,67.03
2023-10-04T01:11:19.406Z,68.47
2023-10-04T01:11:34.510Z,61.67
2023-10-04T01:11:47.074Z,59.08
2023-10-04T01:11:59.325Z,62.80
2023-10-04T01:12:11.005Z,62.35
2023-10-04T01:12:25.806Z,63.00
2023-10-04T01:12:37.399Z,60.92
2023-10-04T01:12:48.822Z,60.70
2023-10-04T01:13:00.426Z,61.63
2023-10-04T01:13:11.883Z,61.05
2023-10-04T01:13:23.519Z,61.72
2023-10-04T01:13:35.073Z,58.22
2023-10-04T01:13:46.611Z,56.15
2023-10-04T01:13:57.978Z,56.00
2023-10-04T01:14:09.368Z,58.35
2023-10-04T01:14:20.977Z,58.58
2023-10-04T01:14:32.481Z,61.67
2023-10-04T01:14:43.944Z,63.80
2023-10-04T01:14:55.399Z,62.28
2023-10-04T01:15:07.456Z,59.65
2023-10-04T01:15:18.941Z,58.17
2023-10-04T01:15:30.554Z,58.63
2023-10-04T01:15:42.074Z,57.58
2023-10-04T01:15:54.154Z,60.85
2023-10-04T01:16:05.593Z,61.05
2023-10-04T01:16:17.098Z,60.25
2023-10-04T01:16:28.545Z,58.17
2023-10-04T01:16:40.110Z,60.47
2023-10-04T01:16:52.847Z,59.88
2023-10-04T01:17:05.186Z,61.35
2023-10-04T01:17:17.025Z,60.20
2023-10-04T01:17:28.829Z,59.58
2023-10-04T01:17:40.532Z,58.17
2023-10-04T01:17:55.390Z,59.40
2023-10-04T01:18:11.482Z,60.92
2023-10-04T01:18:24.294Z,60.33
2023-10-04T01:18:36.660Z,59.03
2023-10-04T01:18:48.196Z,57.58
2023-10-04T01:18:59.759Z,58.03
2023-10-04T01:19:11.348Z,57.33
2023-10-04T01:19:22.765Z,56.80
2023-10-04T01:19:34.266Z,58.85
2023-10-04T01:19:45.877Z,61.13
2023-10-04T01:19:57.517Z,62.30
2023-10-04T01:20:13.673Z,60.80
2023-10-04T01:20:25.771Z,60.47
2023-10-04T01:20:37.378Z,59.25
2023-10-04T01:20:49.451Z,59.72
2023-10-04T01:21:00.998Z,56.97
2023-10-04T01:21:12.524Z,58.35
2023-10-04T01:21:23.994Z,57.10
2023-10-04T01:21:35.496Z,57.90
2023-10-04T01:21:46.986Z,58.80
2023-10-04T01:21:58.626Z,60.72
2023-10-04T01:22:10.045Z,60.83
2023-10-04T01:22:21.821Z,58.63
2023-10-04T01:22:33.251Z,59.05
2023-10-04T01:22:44.765Z,56.80
2023-10-04T01:22:56.902Z,55.28
2023-10-04T01:23:09.925Z,56.13
2023-10-04T01:23:21.426Z,59.55
2023-10-04T01:23:32.826Z,60.63
2023-10-04T01:23:44.378Z,59.35
2023-10-04T01:23:55.901Z,61.38
2023-10-04T01:24:07.659Z,60.67
2023-10-04T01:24:19.233Z,59.20
2023-10-04T01:24:30.817Z,60.25
2023-10-04T01:24:42.282Z,62.88
2023-10-04T01:24:53.734Z,62.03
2023-10-04T01:25:05.580Z,59.67
2023-10-04T01:25:20.128Z,60.40
2023-10-04T01:25:32.966Z,62.40
2023-10-04T01:25:46.091Z,61.00
2023-10-04T01:25:57.613Z,57.75
2023-10-04T01:26:09.073Z,56.05
2023-10-04T01:26:20.667Z,57.90
2023-10-04T01:26:32.047Z,58.85
2023-10-04T01:26:43.616Z,57.92
2023-10-04T01:26:55.058Z,56.00
2023-10-04T01:27:06.525Z,55.45
2023-10-04T01:27:17.971Z,56.25
2023-10-04T01:27:29.553Z,58.30
2023-10-04T01:27:41.000Z,57.63
2023-10-04T01:27:52.397Z,57.67
2023-10-04T01:28:06.829Z,57.22
2023-10-04T01:28:19.776Z,58.15
2023-10-04T01:28:31.677Z,60.88
2023-10-04T01:28:43.118Z,60.60
2023-10-04T01:28:54.628Z,57.58
2023-10-04T01:29:06.546Z,56.20
2023-10-04T01:29:18.045Z,56.30
2023-10-04T01:29:29.534Z,56.17
2023-10-04T01:29:40.952Z,56.38
2023-10-04T01:29:52.488Z,58.35
2023-10-04T01:30:04.441Z,60.30
2023-10-04T01:30:16.012Z,60.35
2023-10-04T01:30:28.820Z,58.45
2023-10-04T01:30:41.642Z,56.78
2023-10-04T01:30:53.481Z,56.85
2023-10-04T01:31:04.942Z,58.72
2023-10-04T01:31:16.367Z,60.38
2023-10-04T01:31:27.882Z,60.70
2023-10-04T01:31:39.756Z,62.05
2023-10-04T01:31:51.295Z,61.40
2023-10-04T01:32:02.771Z,60.20
2023-10-04T01:32:14.312Z,59.30
2023-10-04T01:32:28.715Z,56.97
2023-10-04T01:32:41.559Z,56.95
2023-10-04T01:32:53.409Z,59.42
2023-10-04T01:33:05.132Z,59.90
2023-10-04T01:33:17.071Z,59.50
2023-10-04T01:33:28.934Z,59.28
2023-10-04T01:33:40.473Z,61.17
2023-10-04T01:33:51.935Z,61.22
2023-10-04T01:34:03.368Z,58.15
2023-10-04T01:34:14.877Z,56.40
2023-10-04T01:34:26.372Z,56.60
2023-10-04T01:34:37.863Z,57.13
2023-10-04T01:34:49.334Z,59.42
2023-10-04T01:35:00.864Z,60.60
2023-10-04T01:35:12.285Z,64.13
2023-10-04T01:35:23.716Z,65.53
2023-10-04T01:35:35.107Z,63.22
2023-10-04T01:35:47.900Z,57.38
2023-10-04T01:35:59.611Z,57.67
2023-10-04T01:36:11.410Z,58.78
2023-10-04T01:36:23.079Z,59.72
2023-10-04T01:36:34.814Z,59.55
2023-10-04T01:36:46.335Z,58.72
2023-10-04T01:36:58.189Z,58.13
2023-10-04T01:37:09.670Z,59.08
2023-10-04T01:37:21.115Z,58.05
2023-10-04T01:37:33.357Z,59.30
2023-10-04T01:37:44.832Z,58.83
2023-10-04T01:37:56.284Z,58.08
2023-10-04T01:38:07.743Z,59.08
2023-10-04T01:38:19.756Z,57.75
2023-10-04T01:38:31.314Z,57.60
2023-10-04T01:38:42.806Z,55.83
2023-10-04T01:38:54.268Z,59.25
2023-10-04T01:39:06.267Z,62.90
2023-10-04T01:39:18.408Z,63.65
2023-10-04T01:39:29.926Z,56.30
2023-10-04T01:39:41.480Z,54.05
2023-10-04T01:39:52.968Z,54.67
2023-10-04T01:40:04.617Z,58.38
2023-10-04T01:40:16.401Z,59.88
2023-10-04T01:40:28.016Z,59.00
2023-10-04T01:40:39.796Z,57.80
2023-10-04T01:40:51.392Z,57.95
2023-10-04T01:41:02.847Z,58.08
2023-10-04T01:41:14.273Z,62.80
2023-10-04T01:41:28.547Z,62.88
2023-10-04T01:41:40.120Z,56.50
2023-10-04T01:41:51.849Z,56.60
2023-10-04T01:42:03.378Z,57.53
2023-10-04T01:42:14.847Z,56.95
2023-10-04T01:42:26.325Z,58.15
2023-10-04T01:42:37.825Z,58.17
2023-10-04T01:42:49.641Z,57.35
2023-10-04T01:43:01.148Z,56.50
2023-10-04T01:43:12.617Z,60.90
2023-10-04T01:43:24.484Z,60.35
2023-10-04T01:43:35.967Z,57.60
2023-10-04T01:43:47.532Z,53.90
2023-10-04T01:43:58.936Z,53.08
2023-10-04T01:44:10.412Z,53.85
2023-10-04T01:44:21.850Z,56.58
2023-10-04T01:44:33.268Z,57.47
2023-10-04T01:44:44.734Z,58.45
2023-10-04T01:44:56.119Z,56.63
2023-10-04T01:45:08.454Z,55.60
2023-10-04T01:45:19.997Z,55.53
2023-10-04T01:45:31.540Z,56.38
2023-10-04T01:45:51.628Z,56.85
2023-10-04T01:46:03.086Z,56.72
2023-10-04T01:46:14.598Z,56.50
2023-10-04T01:46:26.106Z,57.30
2023-10-04T01:46:38.305Z,55.17
2023-10-04T01:46:49.786Z,56.83
2023-10-04T01:47:01.493Z,58.63
2023-10-04T01:47:12.998Z,58.72
2023-10-04T01:47:24.504Z,56.72
2023-10-04T01:47:36.107Z,55.03
2023-10-04T01:47:48.245Z,58.30
2023-10-04T01:47:59.838Z,60.50
2023-10-04T01:48:11.721Z,57.58
2023-10-04T01:48:23.282Z,54.85
2023-10-04T01:48:34.800Z,57.00
2023-10-04T01:48:46.421Z,56.47
2023-10-04T01:48:58.122Z,56.70
2023-10-04T01:49:10.483Z,56.70
2023-10-04T01:49:22.033Z,58.13
2023-10-04T01:49:33.463Z,57.08
2023-10-04T01:49:44.870Z,55.40
2023-10-04T01:49:56.378Z,54.03
2023-10-04T01:50:08.347Z,55.35
2023-10-04T01:50:22.574Z,59.67
2023-10-04T01:50:34.015Z,59.45
2023-10-04T01:50:45.388Z,58.10
2023-10-04T01:50:56.886Z,57.90
2023-10-04T01:51:08.357Z,56.30
2023-10-04T01:51:22.307Z,56.83
2023-10-04T01:51:34.387Z,57.60
2023-10-04T01:51:48.497Z,58.15
2023-10-04T01:52:00.538Z,59.67
2023-10-04T01:52:12.070Z,61.08
2023-10-04T01:52:23.514Z,59.92
2023-10-04T01:52:35.077Z,60.63
2023-10-04T01:52:46.566Z,60.85
2023-10-04T01:52:58.022Z,60.95
2023-10-04T01:53:10.044Z,57.80
2023-10-04T01:53:25.631Z,56.95
2023-10-04T01:53:37.167Z,57.97
2023-10-04T01:53:48.844Z,56.45
2023-10-04T01:54:00.485Z,57.40
2023-10-04T01:54:12.075Z,58.40
2023-10-04T01:54:23.591Z,59.35
2023-10-04T01:54:35.144Z,58.33
2023-10-04T01:54:46.678Z,59.13
2023-10-04T01:54:58.283Z,62.30
2023-10-04T01:55:09.756Z,65.07
2023-10-04T01:55:21.129Z,62.33
2023-10-04T01:55:32.550Z,62.05
2023-10-04T01:55:44.210Z,61.30
2023-10-04T01:55:55.807Z,62.15
2023-10-04T01:56:07.381Z,60.97
2023-10-04T01:56:19.287Z,61.88
2023-10-04T01:56:31.215Z,58.58
2023-10-04T01:56:42.661Z,57.58
2023-10-04T01:56:54.178Z,56.65
2023-10-04T01:57:05.684Z,57.70
2023-10-04T01:57:17.215Z,56.13
2023-10-04T01:57:29.291Z,55.22
2023-10-04T01:57:42.061Z,55.25
2023-10-04T01:57:53.724Z,55.65
2023-10-04T01:58:05.200Z,55.53
2023-10-04T01:58:16.911Z,55.35
2023-10-04T01:58:28.413Z,56.38
2023-10-04T01:58:39.937Z,57.03
2023-10-04T01:58:51.376Z,58.95
2023-10-04T01:59:02.997Z,59.35
2023-10-04T01:59:14.833Z,61.17
2023-10-04T01:59:26.537Z,58.83
2023-10-04T01:59:38.044Z,59.08
2023-10-04T01:59:49.427Z,57.42
2023-10-04T02:00:00.918Z,59.13
2023-10-04T02:00:12.938Z,60.50
2023-10-04T02:00:24.477Z,60.28
2023-10-04T02:00:36.321Z,60.60
2023-10-04T02:00:47.797Z,59.70
2023-10-04T02:00:59.387Z,58.75
2023-10-04T02:01:11.129Z,58.60
2023-10-04T02:01:22.799Z,60.08
2023-10-04T02:01:34.291Z,60.20
2023-10-04T02:01:45.877Z,60.42
2023-10-04T02:01:58.092Z,59.33
2023-10-04T02:02:09.638Z,58.45
2023-10-04T02:02:21.399Z,58.28
2023-10-04T02:02:32.976Z,60.67
2023-10-04T02:02:45.600Z,66.13
2023-10-04T02:02:57.229Z,64.47
2023-10-04T02:03:08.825Z,62.85
2023-10-04T02:03:21.216Z,62.35
2023-10-04T02:03:33.768Z,60.55
2023-10-04T02:03:45.655Z,58.60
2023-10-04T02:03:57.246Z,60.65
2023-10-04T02:04:08.683Z,62.70
2023-10-04T02:04:20.085Z,59.05
2023-10-04T02:04:31.812Z,59.03
2023-10-04T02:04:43.275Z,59.78
2023-10-04T02:04:54.769Z,63.10
2023-10-04T02:05:09.632Z,61.25
2023-10-04T02:05:21.031Z,59.08
2023-10-04T02:05:32.613Z,56.72
2023-10-04T02:05:44.100Z,55.38
2023-10-04T02:05:55.484Z,55.75
2023-10-04T02:06:06.957Z,57.55
2023-10-04T02:06:18.388Z,59.67
2023-10-04T02:06:30.405Z,60.20
2023-10-04T02:06:41.955Z,59.72
2023-10-04T02:06:53.427Z,60.10
2023-10-04T02:07:04.869Z,59.25
2023-10-04T02:07:16.293Z,58.95
2023-10-04T02:07:27.713Z,57.88
2023-10-04T02:07:39.368Z,58.20
2023-10-04T02:07:50.847Z,57.30
2023-10-04T02:08:02.332Z,57.65
2023-10-04T02:08:13.831Z,58.45
2023-10-04T02:08:26.092Z,59.03
2023-10-04T02:08:37.540Z,59.90
2023-10-04T02:08:49.026Z,60.60
2023-10-04T02:09:00.470Z,60.95
2023-10-04T02:09:11.837Z,61.17
2023-10-04T02:09:23.328Z,59.45
2023-10-04T02:09:34.814Z,57.92
2023-10-04T02:09:46.282Z,57.25
2023-10-04T02:09:57.856Z,58.75
2023-10-04T02:10:09.637Z,62.40
2023-10-04T02:10:21.315Z,61.67
2023-10-04T02:10:32.712Z,60.75
2023-10-04T02:10:44.219Z,59.92
2023-10-04T02:10:56.156Z,61.10
2023-10-04T02:11:07.731Z,59.17
2023-10-04T02:11:19.169Z,57.88
2023-10-04T02:11:30.598Z,58.80
2023-10-04T02:11:41.992Z,59.75
2023-10-04T02:11:53.538Z,60.20
2023-10-04T02:12:05.604Z,61.22
2023-10-04T02:12:18.201Z,61.35
2023-10-04T02:12:29.642Z,59.80
2023-10-04T02:12:41.241Z,59.88
2023-10-04T02:12:52.806Z,60.40
2023-10-04T02:13:04.802Z,59.55
2023-10-04T02:13:16.358Z,58.38
2023-10-04T02:13:27.929Z,57.83
2023-10-04T02:13:39.350Z,58.55
2023-10-04T02:13:50.775Z,58.25
2023-10-04T02:14:02.257Z,57.85
2023-10-04T02:14:14.847Z,57.00
2023-10-04T02:14:26.254Z,57.75
2023-10-04T02:14:38.025Z,58.25
2023-10-04T02:14:49.830Z,58.17
2023-10-04T02:15:01.377Z,57.60
2023-10-04T02:15:13.464Z,59.17
2023-10-04T02:15:25.405Z,59.63
2023-10-04T02:15:37.108Z,58.38
2023-10-04T02:15:49.277Z,58.92
2023-10-04T02:16:00.729Z,57.88
2023-10-04T02:16:18.653Z,58.20
2023-10-04T02:16:30.253Z,58.53
2023-10-04T02:16:41.826Z,58.95
2023-10-04T02:16:53.414Z,57.83
2023-10-04T02:17:04.956Z,57.53
2023-10-04T02:17:16.368Z,56.53
2023-10-04T02:17:28.310Z,58.90
2023-10-04T02:17:39.809Z,58.28
2023-10-04T02:17:51.676Z,58.72
2023-10-04T02:18:03.478Z,58.45
2023-10-04T02:18:16.023Z,57.10
2023-10-04T02:18:27.642Z,57.47
2023-10-04T02:18:39.213Z,59.63
2023-10-04T02:18:50.732Z,61.13
2023-10-04T02:19:02.488Z,63.88
2023-10-04T02:19:14.103Z,64.95
2023-10-04T02:19:25.568Z,60.15
2023-10-04T02:19:37.325Z,60.10
2023-10-04T02:19:49.268Z,63.03
2023-10-04T02:20:00.678Z,62.88
2023-10-04T02:20:16.555Z,60.05
2023-10-04T02:20:32.851Z,58.17
2023-10-04T02:20:45.292Z,58.80
2023-10-04T02:20:56.797Z,58.58
2023-10-04T02:21:08.263Z,61.65
2023-10-04T02:21:19.726Z,62.22
2023-10-04T02:21:31.302Z,60.60
2023-10-04T02:21:42.768Z,57.47
2023-10-04T02:21:54.171Z,56.20
2023-10-04T02:22:05.558Z,56.67
2023-10-04T02:22:17.029Z,57.28
2023-10-04T02:22:28.520Z,56.50
2023-10-04T02:22:40.416Z,56.17
2023-10-04T02:22:52.679Z,59.17
2023-10-04T02:23:04.300Z,61.47
2023-10-04T02:23:16.838Z,61.10
2023-10-04T02:23:28.285Z,57.35
2023-10-04T02:23:39.727Z,58.42
2023-10-04T02:23:51.224Z,60.42
2023-10-04T02:24:02.878Z,59.55
2023-10-04T02:24:14.387Z,60.03
2023-10-04T02:24:25.892Z,59.42
2023-10-04T02:24:37.558Z,58.83
2023-10-04T02:24:49.037Z,58.92
2023-10-04T02:25:00.976Z,59.35
2023-10-04T02:25:12.486Z,61.97
2023-10-04T02:25:24.132Z,61.35
2023-10-04T02:25:35.636Z,62.65
2023-10-04T02:25:48.436Z,62.38
2023-10-04T02:25:59.859Z,60.53
2023-10-04T02:26:11.517Z,58.88
2023-10-04T02:26:22.999Z,59.28
2023-10-04T02:26:34.402Z,60.22
2023-10-04T02:26:45.836Z,61.80
2023-10-04T02:26:57.328Z,62.83
2023-10-04T02:27:08.880Z,60.15
2023-10-04T02:27:20.417Z,59.72
2023-10-04T02:27:31.915Z,61.28
2023-10-04T02:27:43.628Z,61.00
2023-10-04T02:27:55.103Z,60.63
2023-10-04T02:28:06.943Z,61.55
2023-10-04T02:28:18.405Z,59.53
2023-10-04T02:28:29.870Z,57.05
2023-10-04T02:28:41.416Z,56.83
2023-10-04T02:28:53.920Z,56.90
2023-10-04T02:29:05.936Z,58.40
2023-10-04T02:29:17.393Z,61.65
2023-10-04T02:29:32.384Z,63.17
2023-10-04T02:29:43.915Z,60.47
2023-10-04T02:29:55.434Z,61.45
2023-10-04T02:30:08.105Z,62.03
2023-10-04T02:30:20.646Z,62.65
2023-10-04T02:30:34.942Z,62.50
2023-10-04T02:30:46.964Z,60.75
2023-10-04T02:30:58.473Z,58.10
2023-10-04T02:31:10.033Z,60.17
2023-10-04T02:31:21.988Z,62.13
2023-10-04T02:31:33.474Z,59.38
2023-10-04T02:31:45.079Z,59.72
2023-10-04T02:31:56.482Z,60.17
2023-10-04T02:32:07.943Z,60.88
2023-10-04T02:32:19.421Z,59.72
2023-10-04T02:32:30.982Z,59.03
2023-10-04T02:32:47.774Z,58.35
2023-10-04T02:32:59.210Z,60.88
2023-10-04T02:33:10.743Z,60.58
2023-10-04T02:33:22.823Z,62.88
2023-10-04T02:33:35.001Z,61.88
2023-10-04T02:33:47.133Z,59.85
2023-10-04T02:33:58.556Z,58.45